19S

Sublette Municipal Airport

Sublette, Kansas, USA
METAR K19S 172355Z AUTO 03019KT 4SM BR OVC007 M03/M04 A3025 RMK AO2 T10291036 11006 21029 401041029
Observed Flight Rules
Nov-17 @ 23:55 UTC (17 minutes ago) Instrument Flight Rules
Wind Visibility Clouds Conditions
30° at 19 knots 4 miles
  • Overcast at 700' AGL
  • Mist
Temperatures Readings
Current -3°C / 27°F
Dewpoint -4°C / 25°F
Humidity 93%
Altimeter 30.25" Hg
Pressure 1024 hPa
Elevation 886
METAR K19S 172355Z AUTO 03019KT 4SM BR OVC007 M03/M04 A3025 RMK AO2 T10291036 11006 21029 401041029
Observed Flight Rules
Nov-17 @ 23:55 UTC
(17 minutes ago)
IFR
Wind Visibility
30° at 19 knots 4 miles
Clouds
  • Overcast at 700' AGL
Conditions
  • Mist
Temperature Dewpoint
-3°C / 27°F -4°C / 25°F
Humidity Altimeter Pressure
93% 30.25" Hg 1024 hPa